Time;durP1;ratioP1;P1;durP2;ratioP2;P2;SDS_P1;SDS_P2;PMS_P1;PMS_P2;Temp;Humidity;BMP_temperature;BMP_pressure;BME280_temperature;BME280_humidity;BME280_pressure;Samples;Min_cycle;Max_cycle;Signal;HPM_P1;HPM_P2
2022/03/05 00:01:30;;;;;;;4.00;3.90;;;;;;;;;;4972411;28;20925;-60
2022/03/05 00:03:56;;;;;;;3.20;3.10;;;;;;;;;;4973391;28;20202;-62
2022/03/05 00:06:22;;;;;;;2.93;2.83;;;;;;;;;;4973067;28;20427;-60
2022/03/05 00:08:48;;;;;;;3.40;3.30;;;;;;;;;;4973415;28;20419;-56
2022/03/05 00:11:14;;;;;;;3.33;3.23;;;;;;;;;;4973020;28;20462;-57
2022/03/05 00:13:39;;;;;;;3.73;3.60;;;;;;;;;;4972980;28;20426;-60
2022/03/05 00:16:05;;;;;;;3.43;3.33;;;;;;;;;;4973726;28;20453;-60
2022/03/05 00:18:31;;;;;;;3.70;3.60;;;;;;;;;;4965201;28;20515;-61
2022/03/05 00:20:57;;;;;;;4.83;4.63;;;;;;;;;;4973192;28;20434;-60
2022/03/05 00:23:24;;;;;;;4.90;4.70;;;;;;;;;;4973049;28;20469;-61
2022/03/05 00:25:50;;;;;;;4.43;4.22;;;;;;;;;;4973154;28;20432;-60
2022/03/05 00:28:16;;;;;;;3.67;3.57;;;;;;;;;;4973153;28;20183;-60
2022/03/05 00:30:42;;;;;;;3.00;2.90;;;;;;;;;;4973508;28;20410;-60
2022/03/05 00:33:08;;;;;;;3.72;3.53;;;;;;;;;;4973187;28;20214;-61
2022/03/05 00:35:34;;;;;;;3.00;2.90;;;;;;;;;;4972904;28;20278;-59
2022/03/05 00:38:00;;;;;;;3.42;3.33;;;;;;;;;;4972940;28;20427;-61
2022/03/05 00:40:26;;;;;;;3.83;3.70;;;;;;;;;;4973075;28;20656;-62
2022/03/05 00:42:52;;;;;;;1.23;1.23;;;;;;;;;;4973037;28;20175;-59
2022/03/05 00:45:18;;;;;;;1.10;1.10;;;;;;;;;;4973108;28;20689;-59
2022/03/05 00:47:44;;;;;;;1.10;1.10;;;;;;;;;;4972584;28;20441;-60
2022/03/05 00:50:10;;;;;;;1.10;1.10;;;;;;;;;;4973018;28;20186;-61
2022/03/05 00:52:37;;;;;;;1.75;1.75;;;;;;;;;;4972381;28;20529;-60
2022/03/05 00:55:04;;;;;;;2.05;2.00;;;;;;;;;;4972826;28;20241;-61
2022/03/05 00:57:30;;;;;;;1.60;1.60;;;;;;;;;;4973004;28;20187;-60
2022/03/05 00:59:56;;;;;;;2.00;2.00;;;;;;;;;;4972919;28;20210;-60
2022/03/05 01:02:22;;;;;;;2.17;2.17;;;;;;;;;;4972254;28;20830;-61
2022/03/05 01:04:48;;;;;;;1.35;1.35;;;;;;;;;;4972385;28;20477;-60
2022/03/05 01:07:14;;;;;;;2.75;2.65;;;;;;;;;;4970604;28;20195;-58
2022/03/05 01:09:40;;;;;;;2.35;2.25;;;;;;;;;;4972378;28;20188;-59
2022/03/05 01:12:06;;;;;;;2.97;2.88;;;;;;;;;;4972386;28;20198;-60
2022/03/05 01:14:32;;;;;;;2.42;2.33;;;;;;;;;;4957916;28;20203;-61
2022/03/05 01:16:58;;;;;;;2.30;2.30;;;;;;;;;;4968054;28;20230;-61
2022/03/05 01:19:24;;;;;;;2.03;2.03;;;;;;;;;;4972547;28;20458;-59
2022/03/05 01:21:50;;;;;;;3.45;3.35;;;;;;;;;;4971738;28;20430;-59
2022/03/05 01:24:17;;;;;;;2.65;2.63;;;;;;;;;;4972184;28;20211;-58
2022/03/05 01:26:43;;;;;;;2.90;2.80;;;;;;;;;;4972407;28;20253;-57
2022/03/05 01:29:09;;;;;;;3.60;3.50;;;;;;;;;;4972320;28;20179;-57
2022/03/05 01:31:35;;;;;;;2.87;2.77;;;;;;;;;;4971952;28;20175;-57
2022/03/05 01:34:01;;;;;;;1.90;1.90;;;;;;;;;;4971543;28;20957;-59
2022/03/05 01:36:27;;;;;;;2.58;2.47;;;;;;;;;;4971736;28;20493;-57
2022/03/05 01:38:53;;;;;;;1.90;1.90;;;;;;;;;;4971562;28;20732;-61
2022/03/05 01:41:18;;;;;;;2.43;2.33;;;;;;;;;;4972162;28;20954;-61
2022/03/05 01:43:51;;;;;;;3.37;3.27;;;;;;;;;;4971266;28;20834;-58
2022/03/05 01:46:30;;;;;;;3.30;3.20;;;;;;;;;;4971839;28;20481;-60
2022/03/05 01:48:56;;;;;;;2.60;2.50;;;;;;;;;;4972300;28;20678;-61
2022/03/05 01:51:22;;;;;;;2.38;2.38;;;;;;;;;;4972277;28;20185;-59
2022/03/05 01:53:48;;;;;;;2.93;2.83;;;;;;;;;;4970951;28;20262;-59
2022/03/05 01:56:15;;;;;;;3.03;2.93;;;;;;;;;;4971573;28;20430;-58
2022/03/05 01:58:41;;;;;;;2.30;2.30;;;;;;;;;;4970782;28;20423;-61
2022/03/05 02:01:07;;;;;;;2.55;2.45;;;;;;;;;;4971533;28;20182;-60
2022/03/05 02:03:33;;;;;;;2.37;2.27;;;;;;;;;;4971033;28;20205;-60
2022/03/05 02:05:58;;;;;;;2.95;2.85;;;;;;;;;;4971647;28;20462;-58
2022/03/05 02:08:24;;;;;;;2.73;2.63;;;;;;;;;;4967689;28;20254;-61
2022/03/05 02:10:50;;;;;;;2.00;2.00;;;;;;;;;;4969707;28;20465;-57
2022/03/05 02:13:16;;;;;;;3.30;3.20;;;;;;;;;;4971851;28;20480;-58
2022/03/05 02:15:42;;;;;;;3.13;3.03;;;;;;;;;;4974952;28;20457;-61
2022/03/05 02:18:08;;;;;;;2.87;2.77;;;;;;;;;;4975559;28;20662;-57
2022/03/05 02:20:34;;;;;;;3.63;3.53;;;;;;;;;;4974857;28;20454;-61
2022/03/05 02:23:00;;;;;;;1.97;1.93;;;;;;;;;;4975132;28;20270;-57
2022/03/05 02:25:26;;;;;;;3.07;2.97;;;;;;;;;;4975186;28;20445;-60
2022/03/05 02:27:52;;;;;;;2.83;2.73;;;;;;;;;;4974533;28;20443;-57
2022/03/05 02:30:18;;;;;;;4.78;4.57;;;;;;;;;;4957324;28;20439;-59
2022/03/05 02:32:44;;;;;;;2.77;2.67;;;;;;;;;;4975095;28;20593;-59
2022/03/05 02:35:10;;;;;;;2.97;2.87;;;;;;;;;;4974855;28;20443;-60
2022/03/05 02:37:36;;;;;;;3.30;3.20;;;;;;;;;;4974472;28;20509;-59
2022/03/05 02:40:02;;;;;;;3.30;3.20;;;;;;;;;;4969932;28;20419;-60
2022/03/05 02:42:28;;;;;;;1.35;1.35;;;;;;;;;;4969337;28;20402;-61
2022/03/05 02:44:54;;;;;;;2.80;2.70;;;;;;;;;;4975130;28;20219;-60
2022/03/05 02:47:20;;;;;;;3.63;3.53;;;;;;;;;;4975351;28;20433;-61
2022/03/05 02:49:46;;;;;;;1.93;1.93;;;;;;;;;;4974506;28;20829;-60
2022/03/05 02:52:11;;;;;;;3.60;3.50;;;;;;;;;;4974324;28;20433;-54
2022/03/05 02:54:37;;;;;;;3.83;3.73;;;;;;;;;;4974906;28;20509;-61
2022/03/05 02:57:03;;;;;;;4.07;3.97;;;;;;;;;;4974115;28;20934;-60
2022/03/05 02:59:35;;;;;;;3.85;3.75;;;;;;;;;;4974189;28;20448;-60
2022/03/05 03:02:01;;;;;;;5.57;5.38;;;;;;;;;;4970516;28;20253;-58
2022/03/05 03:04:27;;;;;;;4.90;4.70;;;;;;;;;;4973385;28;20214;-61
2022/03/05 03:06:53;;;;;;;5.23;5.13;;;;;;;;;;4974448;28;20948;-59
2022/03/05 03:09:19;;;;;;;7.72;7.53;;;;;;;;;;4974700;28;20415;-59
2022/03/05 03:11:45;;;;;;;7.78;7.57;;;;;;;;;;4973881;28;20725;-59
2022/03/05 03:14:11;;;;;;;9.43;9.13;;;;;;;;;;4974348;28;20203;-59
2022/03/05 03:16:37;;;;;;;12.00;11.50;;;;;;;;;;4973846;28;20718;-61
2022/03/05 03:19:03;;;;;;;10.33;10.03;;;;;;;;;;4974074;28;20961;-59
2022/03/05 03:21:29;;;;;;;13.13;12.63;;;;;;;;;;4974394;28;20965;-59
2022/03/05 03:23:55;;;;;;;11.63;11.23;;;;;;;;;;4971182;28;20469;-57
2022/03/05 03:26:21;;;;;;;13.50;13.00;;;;;;;;;;4973402;28;20549;-59
2022/03/05 03:28:47;;;;;;;11.23;10.83;;;;;;;;;;4974140;28;20430;-58
2022/03/05 03:31:12;;;;;;;14.13;13.57;;;;;;;;;;4972701;28;20415;-59
2022/03/05 03:33:38;;;;;;;14.23;13.70;;;;;;;;;;4968142;28;20434;-60
2022/03/05 03:36:04;;;;;;;12.13;11.73;;;;;;;;;;4972116;28;20458;-61
2022/03/05 03:38:30;;;;;;;10.32;9.93;;;;;;;;;;4973916;28;20430;-59
2022/03/05 03:40:56;;;;;;;15.40;14.70;;;;;;;;;;4973686;28;20209;-60
2022/03/05 03:43:22;;;;;;;17.70;16.87;;;;;;;;;;4973981;28;20906;-59
2022/03/05 03:45:48;;;;;;;10.80;10.40;;;;;;;;;;4973032;28;20965;-60
2022/03/05 03:48:14;;;;;;;10.30;10.00;;;;;;;;;;4973594;28;20501;-58
2022/03/05 03:50:40;;;;;;;9.00;8.80;;;;;;;;;;4973793;28;20474;-61
2022/03/05 03:53:07;;;;;;;10.40;10.07;;;;;;;;;;4973751;28;20980;-61
2022/03/05 03:55:33;;;;;;;7.43;7.23;;;;;;;;;;4973715;28;20302;-60
2022/03/05 03:57:59;;;;;;;15.47;14.83;;;;;;;;;;4973690;28;20477;-61
2022/03/05 04:00:25;;;;;;;18.15;17.25;;;;;;;;;;4973017;28;20422;-61
2022/03/05 04:02:51;;;;;;;13.82;13.30;;;;;;;;;;4973253;28;20182;-61
2022/03/05 04:05:17;;;;;;;11.43;11.10;;;;;;;;;;4972085;28;20690;-60
2022/03/05 04:10:28;;;;;;;9.88;9.57;;;;;;;;;;4965929;28;20194;-61
2022/03/05 04:12:54;;;;;;;4.57;4.47;;;;;;;;;;4973016;28;20194;-60
2022/03/05 04:15:20;;;;;;;1.85;1.85;;;;;;;;;;4973262;28;20697;-61
2022/03/05 04:17:46;;;;;;;1.33;1.33;;;;;;;;;;4973013;28;20194;-60
2022/03/05 04:20:12;;;;;;;2.33;2.22;;;;;;;;;;4966891;28;20176;-61
2022/03/05 04:22:38;;;;;;;1.40;1.40;;;;;;;;;;4966173;28;20573;-61
2022/03/05 04:25:04;;;;;;;1.20;1.20;;;;;;;;;;4972901;28;20217;-58
2022/03/05 04:27:30;;;;;;;1.40;1.40;;;;;;;;;;4973055;28;20441;-60
2022/03/05 04:29:56;;;;;;;2.03;2.00;;;;;;;;;;4972837;28;20183;-60
2022/03/05 04:32:22;;;;;;;2.25;2.25;;;;;;;;;;4972497;28;20433;-61
2022/03/05 04:34:48;;;;;;;1.93;1.93;;;;;;;;;;4973005;28;20581;-60
2022/03/05 04:37:14;;;;;;;2.27;2.20;;;;;;;;;;4960949;28;20763;-59
2022/03/05 04:39:40;;;;;;;2.00;2.00;;;;;;;;;;4972881;28;20919;-61
2022/03/05 04:42:06;;;;;;;2.60;2.50;;;;;;;;;;4972529;28;20473;-60
2022/03/05 04:44:32;;;;;;;4.75;4.55;;;;;;;;;;4973266;28;20654;-57
2022/03/05 04:46:58;;;;;;;3.83;3.72;;;;;;;;;;4973711;28;20178;-59
2022/03/05 04:49:24;;;;;;;4.87;4.67;;;;;;;;;;4972637;28;20175;-61
2022/03/05 04:51:50;;;;;;;1.90;1.90;;;;;;;;;;4972823;28;20427;-61
2022/03/05 04:54:16;;;;;;;5.80;5.60;;;;;;;;;;4972037;28;20923;-61
2022/03/05 04:56:42;;;;;;;2.05;2.05;;;;;;;;;;4972285;28;20179;-59
2022/03/05 04:59:08;;;;;;;2.40;2.30;;;;;;;;;;4972293;28;20241;-58
2022/03/05 05:01:34;;;;;;;2.60;2.50;;;;;;;;;;4971600;28;20182;-59
2022/03/05 05:04:00;;;;;;;2.10;2.00;;;;;;;;;;4972473;28;20465;-60
2022/03/05 05:06:26;;;;;;;1.80;1.80;;;;;;;;;;4968991;28;20896;-59
2022/03/05 05:08:53;;;;;;;1.95;1.95;;;;;;;;;;4972171;28;20650;-60
2022/03/05 05:11:18;;;;;;;1.55;1.55;;;;;;;;;;4972218;28;20603;-61
2022/03/05 05:13:44;;;;;;;2.73;2.63;;;;;;;;;;4970350;28;20198;-60
2022/03/05 05:16:10;;;;;;;2.70;2.60;;;;;;;;;;4971142;28;20437;-60
2022/03/05 05:18:36;;;;;;;2.00;2.00;;;;;;;;;;4971833;28;20429;-60
2022/03/05 05:21:02;;;;;;;1.65;1.65;;;;;;;;;;4971954;28;20960;-61
2022/03/05 05:23:28;;;;;;;1.67;1.67;;;;;;;;;;4972404;28;20277;-60
2022/03/05 05:25:54;;;;;;;1.98;1.90;;;;;;;;;;4971595;28;20480;-60
2022/03/05 05:28:20;;;;;;;1.80;1.80;;;;;;;;;;4971564;28;20579;-59
2022/03/05 05:30:47;;;;;;;1.35;1.35;;;;;;;;;;4971515;28;20422;-61
2022/03/05 05:33:12;;;;;;;1.55;1.55;;;;;;;;;;4971615;28;20558;-61
2022/03/05 05:35:38;;;;;;;1.57;1.57;;;;;;;;;;4966857;28;20194;-60
2022/03/05 05:38:04;;;;;;;1.27;1.27;;;;;;;;;;4966327;28;20438;-61
2022/03/05 05:40:30;;;;;;;1.40;1.40;;;;;;;;;;4971183;28;20489;-61
2022/03/05 05:42:56;;;;;;;1.60;1.60;;;;;;;;;;4971487;28;20803;-61
2022/03/05 05:45:22;;;;;;;1.30;1.30;;;;;;;;;;4971952;28;20199;-61
2022/03/05 05:47:48;;;;;;;1.77;1.77;;;;;;;;;;4971258;28;20474;-61
2022/03/05 05:50:14;;;;;;;2.87;2.77;;;;;;;;;;4974931;28;20182;-61
2022/03/05 05:52:40;;;;;;;1.30;1.30;;;;;;;;;;4974343;28;20509;-61
2022/03/05 05:55:06;;;;;;;1.10;1.10;;;;;;;;;;4976234;28;20458;-59
2022/03/05 05:57:32;;;;;;;1.10;1.10;;;;;;;;;;4975851;28;20194;-61
2022/03/05 05:59:58;;;;;;;1.20;1.20;;;;;;;;;;4975624;28;20665;-60
2022/03/05 06:02:24;;;;;;;1.20;1.20;;;;;;;;;;4974817;28;21003;-60
2022/03/05 06:04:50;;;;;;;1.20;1.20;;;;;;;;;;4970522;28;21029;-62
2022/03/05 06:07:16;;;;;;;1.38;1.38;;;;;;;;;;4970077;28;20767;-61
2022/03/05 06:09:42;;;;;;;1.87;1.87;;;;;;;;;;4974777;28;20258;-59
2022/03/05 06:12:08;;;;;;;2.33;2.23;;;;;;;;;;4975679;28;20418;-61
2022/03/05 06:14:34;;;;;;;2.58;2.47;;;;;;;;;;4975584;28;20439;-61
2022/03/05 06:17:00;;;;;;;2.30;2.20;;;;;;;;;;4975267;28;20179;-60
2022/03/05 06:19:27;;;;;;;2.95;2.85;;;;;;;;;;4973090;28;20203;-59
2022/03/05 06:21:53;;;;;;;1.35;1.35;;;;;;;;;;4974844;28;20284;-60
2022/03/05 06:24:19;;;;;;;1.55;1.55;;;;;;;;;;4975729;28;20280;-61
2022/03/05 06:26:45;;;;;;;1.67;1.67;;;;;;;;;;4974846;28;20646;-59
2022/03/05 06:29:11;;;;;;;1.55;1.55;;;;;;;;;;4974791;28;20568;-56
2022/03/05 06:31:37;;;;;;;1.70;1.70;;;;;;;;;;4973891;28;20262;-60
2022/03/05 06:34:03;;;;;;;1.53;1.53;;;;;;;;;;4973460;28;20456;-59
2022/03/05 06:36:29;;;;;;;1.60;1.60;;;;;;;;;;4976075;28;20952;-60
2022/03/05 06:38:56;;;;;;;1.20;1.20;;;;;;;;;;4981514;28;20190;-60
2022/03/05 06:41:22;;;;;;;0.90;0.90;;;;;;;;;;4983828;28;20207;-60
2022/03/05 06:43:48;;;;;;;1.02;1.02;;;;;;;;;;4971886;28;20199;-58
2022/03/05 06:46:14;;;;;;;0.90;0.90;;;;;;;;;;4974716;28;20175;-61
2022/03/05 06:48:40;;;;;;;1.50;1.50;;;;;;;;;;4974770;28;20429;-60
2022/03/05 06:51:06;;;;;;;2.17;2.15;;;;;;;;;;4970668;28;20422;-58
2022/03/05 06:53:32;;;;;;;4.37;4.17;;;;;;;;;;4973495;28;20202;-56
2022/03/05 06:55:58;;;;;;;2.83;2.72;;;;;;;;;;4974163;28;20469;-61
2022/03/05 06:58:24;;;;;;;3.20;3.10;;;;;;;;;;4974270;28;20186;-60
2022/03/05 07:00:49;;;;;;;2.03;2.03;;;;;;;;;;4973509;28;20487;-59
2022/03/05 07:03:15;;;;;;;2.40;2.40;;;;;;;;;;4973155;28;21023;-59
2022/03/05 07:05:41;;;;;;;4.07;3.87;;;;;;;;;;4974044;28;20916;-61
2022/03/05 07:08:07;;;;;;;3.60;3.50;;;;;;;;;;4974347;28;20443;-59
2022/03/05 07:10:33;;;;;;;2.10;2.03;;;;;;;;;;4973808;28;20432;-61
2022/03/05 07:12:59;;;;;;;2.00;2.00;;;;;;;;;;4974094;28;20430;-61
2022/03/05 07:15:26;;;;;;;4.25;4.05;;;;;;;;;;4973960;28;20447;-59
2022/03/05 07:17:52;;;;;;;2.95;2.85;;;;;;;;;;4973668;28;20194;-58
2022/03/05 07:20:18;;;;;;;5.07;4.78;;;;;;;;;;4972821;28;20175;-59
2022/03/05 07:22:45;;;;;;;4.70;4.50;;;;;;;;;;4971833;28;20298;-60
2022/03/05 07:25:11;;;;;;;2.67;2.58;;;;;;;;;;4972521;28;20268;-61
2022/03/05 07:27:37;;;;;;;5.15;4.85;;;;;;;;;;4971967;28;20178;-59
2022/03/05 07:30:03;;;;;;;5.30;5.00;;;;;;;;;;4969218;28;20251;-60
2022/03/05 07:32:29;;;;;;;3.10;3.00;;;;;;;;;;4971351;28;20194;-60
2022/03/05 07:34:55;;;;;;;2.90;2.80;;;;;;;;;;4976838;28;20199;-61
2022/03/05 07:37:21;;;;;;;3.33;3.20;;;;;;;;;;4970164;28;20462;-60
2022/03/05 07:39:47;;;;;;;4.83;4.63;;;;;;;;;;4972511;28;20693;-61
2022/03/05 07:42:13;;;;;;;3.60;3.50;;;;;;;;;;4971477;28;20504;-62
2022/03/05 07:44:39;;;;;;;4.80;4.60;;;;;;;;;;4972780;28;20474;-59
2022/03/05 07:47:05;;;;;;;3.00;2.90;;;;;;;;;;4972508;28;20430;-61
2022/03/05 07:49:31;;;;;;;4.10;3.95;;;;;;;;;;4973596;28;20453;-61
2022/03/05 07:51:57;;;;;;;3.07;2.97;;;;;;;;;;4977519;28;20688;-58
2022/03/05 07:54:24;;;;;;;3.07;2.97;;;;;;;;;;4977533;28;20482;-60
2022/03/05 07:56:50;;;;;;;2.25;2.20;;;;;;;;;;4976007;28;20433;-59
2022/03/05 07:59:16;;;;;;;3.00;2.90;;;;;;;;;;4964890;28;20199;-61
2022/03/05 08:01:42;;;;;;;3.23;3.13;;;;;;;;;;4972051;28;20562;-58
2022/03/05 08:04:08;;;;;;;6.80;6.40;;;;;;;;;;4970944;28;20517;-60
2022/03/05 08:06:34;;;;;;;4.60;4.40;;;;;;;;;;4968981;28;20431;-61
2022/03/05 08:09:00;;;;;;;3.20;3.10;;;;;;;;;;4962559;28;20431;-59
2022/03/05 08:11:26;;;;;;;4.30;4.10;;;;;;;;;;4967485;28;20943;-58
2022/03/05 08:13:52;;;;;;;4.53;4.32;;;;;;;;;;4969940;28;20453;-57
2022/03/05 08:16:18;;;;;;;3.70;3.60;;;;;;;;;;4972302;28;20182;-61
2022/03/05 08:18:44;;;;;;;5.18;4.95;;;;;;;;;;4970621;28;20430;-60
2022/03/05 08:21:10;;;;;;;6.83;6.50;;;;;;;;;;4969549;28;20184;-55
2022/03/05 08:23:36;;;;;;;5.03;4.83;;;;;;;;;;4970517;28;20565;-61
2022/03/05 08:26:02;;;;;;;3.33;3.23;;;;;;;;;;4971753;28;20482;-60
2022/03/05 08:28:28;;;;;;;4.15;3.97;;;;;;;;;;4968986;28;20469;-60
2022/03/05 08:30:54;;;;;;;4.43;4.32;;;;;;;;;;4953973;28;20180;-58
2022/03/05 08:33:21;;;;;;;7.03;6.70;;;;;;;;;;4969154;28;20193;-60
2022/03/05 08:35:47;;;;;;;6.15;5.85;;;;;;;;;;4970184;28;20471;-61
2022/03/05 08:38:14;;;;;;;4.63;4.53;;;;;;;;;;4970700;28;20728;-60
2022/03/05 08:40:40;;;;;;;3.22;3.13;;;;;;;;;;4971951;28;20177;-61
2022/03/05 08:43:06;;;;;;;3.70;3.60;;;;;;;;;;4973374;28;20661;-61
2022/03/05 08:45:32;;;;;;;2.33;2.33;;;;;;;;;;4972539;28;20453;-60
2022/03/05 08:47:58;;;;;;;2.28;2.28;;;;;;;;;;4972707;28;20178;-61
2022/03/05 08:50:24;;;;;;;3.25;3.15;;;;;;;;;;4970985;28;20189;-61
2022/03/05 08:52:50;;;;;;;1.60;1.60;;;;;;;;;;4973119;28;20173;-61
2022/03/05 08:55:19;;;;;;;4.07;3.97;;;;;;;;;;4972464;28;20548;-61
2022/03/05 08:57:45;;;;;;;3.58;3.47;;;;;;;;;;4972451;28;20433;-60
2022/03/05 09:00:12;;;;;;;5.18;4.90;;;;;;;;;;4972575;28;20190;-61
2022/03/05 09:02:38;;;;;;;2.17;2.17;;;;;;;;;;4973150;28;20175;-62
2022/03/05 09:05:04;;;;;;;2.45;2.35;;;;;;;;;;4972623;28;20206;-61
2022/03/05 09:07:30;;;;;;;2.75;2.65;;;;;;;;;;4971944;28;20654;-62
2022/03/05 09:09:56;;;;;;;1.33;1.33;;;;;;;;;;4972644;28;20553;-61
2022/03/05 09:12:23;;;;;;;1.47;1.47;;;;;;;;;;4972503;28;20258;-61
2022/03/05 09:14:49;;;;;;;1.08;1.08;;;;;;;;;;4972334;28;20858;-60
2022/03/05 09:17:15;;;;;;;1.07;1.07;;;;;;;;;;4972817;28;20191;-60
2022/03/05 09:19:41;;;;;;;0.98;0.98;;;;;;;;;;4971663;28;20422;-60
2022/03/05 09:22:09;;;;;;;0.80;0.80;;;;;;;;;;4972540;28;20183;-61
2022/03/05 09:24:36;;;;;;;1.23;1.23;;;;;;;;;;4971735;28;20491;-59
2022/03/05 09:27:02;;;;;;;0.93;0.93;;;;;;;;;;4972234;28;20847;-59
2022/03/05 09:29:28;;;;;;;0.80;0.80;;;;;;;;;;4972109;28;20247;-59
2022/03/05 09:31:55;;;;;;;1.17;1.17;;;;;;;;;;4971532;28;20433;-61
2022/03/05 09:34:20;;;;;;;1.00;1.00;;;;;;;;;;4972212;28;20854;-61
2022/03/05 09:36:46;;;;;;;0.77;0.77;;;;;;;;;;4972043;28;20410;-61
2022/03/05 09:39:12;;;;;;;1.10;1.10;;;;;;;;;;4972210;28;20427;-61
2022/03/05 09:41:41;;;;;;;0.70;0.70;;;;;;;;;;4972486;28;20446;-60
2022/03/05 09:44:08;;;;;;;0.87;0.87;;;;;;;;;;4971429;28;20478;-61
2022/03/05 09:46:34;;;;;;;0.90;0.90;;;;;;;;;;4972518;28;20410;-61
2022/03/05 09:49:01;;;;;;;0.70;0.70;;;;;;;;;;4972508;28;20518;-61
2022/03/05 09:51:27;;;;;;;0.73;0.73;;;;;;;;;;4971703;28;20969;-61
2022/03/05 09:53:53;;;;;;;1.00;1.00;;;;;;;;;;4972163;28;20400;-62
2022/03/05 09:56:20;;;;;;;0.80;0.80;;;;;;;;;;5012169;22;20906;-62
2022/03/05 09:58:46;;;;;;;0.50;0.50;;;;;;;;;;5008023;28;20428;-62
2022/03/05 10:01:12;;;;;;;0.60;0.60;;;;;;;;;;5011279;28;20404;-61
2022/03/05 10:03:45;;;;;;;0.53;0.53;;;;;;;;;;4999621;28;20480;-62
2022/03/05 10:06:21;;;;;;;1.00;1.00;;;;;;;;;;5019444;28;20501;-61
2022/03/05 10:08:50;;;;;;;1.43;1.43;;;;;;;;;;5029122;28;20415;-61
2022/03/05 10:11:16;;;;;;;0.80;0.80;;;;;;;;;;5028995;28;20457;-62
2022/03/05 10:13:42;;;;;;;0.60;0.60;;;;;;;;;;5031037;28;20415;-62
2022/03/05 10:16:31;;;;;;;0.40;0.40;;;;;;;;;;5031048;28;20427;-62
2022/03/05 10:18:58;;;;;;;0.50;0.50;;;;;;;;;;5024373;28;20955;-62
2022/03/05 10:21:31;;;;;;;0.50;0.50;;;;;;;;;;5023148;28;20424;-62
2022/03/05 10:24:23;;;;;;;1.00;1.00;;;;;;;;;;5012299;28;20460;-61
2022/03/05 10:26:50;;;;;;;1.30;1.30;;;;;;;;;;4988306;28;20452;-62
2022/03/05 10:29:24;;;;;;;1.50;1.50;;;;;;;;;;5011512;28;20404;-61
2022/03/05 10:32:01;;;;;;;1.20;1.20;;;;;;;;;;5012286;28;20967;-61
2022/03/05 10:34:28;;;;;;;0.90;0.90;;;;;;;;;;5030690;28;20874;-61
2022/03/05 10:36:58;;;;;;;1.13;1.13;;;;;;;;;;5032323;28;20478;-64
2022/03/05 10:39:25;;;;;;;0.90;0.90;;;;;;;;;;5033807;28;20401;-61
2022/03/05 10:41:52;;;;;;;1.00;1.00;;;;;;;;;;5014911;28;20780;-61
2022/03/05 10:44:19;;;;;;;0.97;0.97;;;;;;;;;;5015028;28;20551;-61
2022/03/05 10:47:05;;;;;;;1.53;1.53;;;;;;;;;;5014723;28;20468;-62
2022/03/05 10:49:36;;;;;;;1.80;1.80;;;;;;;;;;5018599;28;20410;-61
2022/03/05 10:52:06;;;;;;;0.70;0.70;;;;;;;;;;5018081;28;20428;-61
2022/03/05 10:54:40;;;;;;;1.10;1.10;;;;;;;;;;5021358;28;20432;-61
2022/03/05 10:57:06;;;;;;;1.70;1.70;;;;;;;;;;5024056;28;20449;-62
2022/03/05 10:59:34;;;;;;;2.13;2.13;;;;;;;;;;5020700;28;20436;-62
2022/03/05 11:02:01;;;;;;;2.47;2.47;;;;;;;;;;5017691;28;20835;-62
2022/03/05 11:04:27;;;;;;;1.50;1.50;;;;;;;;;;5018611;28;20446;-61
2022/03/05 11:06:54;;;;;;;1.40;1.40;;;;;;;;;;5018958;28;20458;-62
2022/03/05 11:09:22;;;;;;;1.43;1.43;;;;;;;;;;5019840;28;20500;-62
2022/03/05 11:11:49;;;;;;;1.00;1.00;;;;;;;;;;5026050;28;20403;-62
2022/03/05 11:14:16;;;;;;;2.03;2.03;;;;;;;;;;5019686;28;20473;-61
2022/03/05 11:16:42;;;;;;;1.33;1.33;;;;;;;;;;5026118;28;21412;-64
2022/03/05 11:19:08;;;;;;;0.50;0.50;;;;;;;;;;5021592;28;20530;-61
2022/03/05 11:21:35;;;;;;;0.60;0.60;;;;;;;;;;5023314;28;20424;-61
2022/03/05 11:24:01;;;;;;;0.63;0.63;;;;;;;;;;5024701;28;20819;-62
2022/03/05 11:26:37;;;;;;;1.83;1.83;;;;;;;;;;5023588;28;20439;-62
2022/03/05 11:29:03;;;;;;;1.63;1.63;;;;;;;;;;5016677;28;20431;-62
2022/03/05 11:31:33;;;;;;;1.43;1.43;;;;;;;;;;5019347;28;20424;-62
2022/03/05 11:34:21;;;;;;;0.60;0.60;;;;;;;;;;5017673;28;20398;-62
2022/03/05 11:36:47;;;;;;;0.70;0.70;;;;;;;;;;5020770;28;20436;-60
2022/03/05 11:39:13;;;;;;;0.70;0.70;;;;;;;;;;5023752;28;20443;-62
2022/03/05 11:41:59;;;;;;;0.43;0.43;;;;;;;;;;5017991;28;20419;-62
2022/03/05 11:44:28;;;;;;;0.60;0.60;;;;;;;;;;5020462;28;20464;-62
2022/03/05 11:47:12;;;;;;;1.23;1.23;;;;;;;;;;5017490;28;20439;-62
2022/03/05 11:49:59;;;;;;;1.40;1.40;;;;;;;;;;5017310;28;20811;-62
2022/03/05 11:52:48;;;;;;;4.93;4.83;;;;;;;;;;5017600;28;20412;-62
2022/03/05 11:55:14;;;;;;;5.07;4.97;;;;;;;;;;5007605;28;20794;-61
2022/03/05 11:57:52;;;;;;;4.10;4.00;;;;;;;;;;5028615;28;20412;-62
2022/03/05 12:00:21;;;;;;;0.90;0.90;;;;;;;;;;5019434;28;20419;-64
2022/03/05 12:02:50;;;;;;;0.97;0.97;;;;;;;;;;5018363;28;20412;-61
2022/03/05 12:05:35;;;;;;;0.90;0.90;;;;;;;;;;5024897;28;20462;-64
2022/03/05 12:08:00;;;;;;;1.20;1.20;;;;;;;;;;5018465;28;20417;-64
2022/03/05 12:10:26;;;;;;;1.30;1.30;;;;;;;;;;5024643;28;20415;-64
2022/03/05 12:12:53;;;;;;;1.80;1.80;;;;;;;;;;5028920;28;20416;-64
2022/03/05 12:15:32;;;;;;;1.80;1.80;;;;;;;;;;5026654;28;20534;-61
2022/03/05 12:18:00;;;;;;;1.73;1.73;;;;;;;;;;5024932;28;20427;-61
2022/03/05 12:20:29;;;;;;;3.00;2.90;;;;;;;;;;5023004;28;20423;-62
2022/03/05 12:23:01;;;;;;;0.90;0.90;;;;;;;;;;5025189;28;20454;-64
2022/03/05 12:25:28;;;;;;;1.00;1.00;;;;;;;;;;5025078;28;20472;-64
2022/03/05 12:27:55;;;;;;;1.60;1.60;;;;;;;;;;5029146;28;20965;-64
2022/03/05 12:30:22;;;;;;;2.45;2.35;;;;;;;;;;5022798;28;20427;-63
2022/03/05 12:32:48;;;;;;;1.50;1.50;;;;;;;;;;5019331;28;20192;-64
2022/03/05 12:35:17;;;;;;;2.03;2.00;;;;;;;;;;5027446;28;20256;-64
2022/03/05 12:37:43;;;;;;;0.60;0.60;;;;;;;;;;5019678;28;20545;-64
2022/03/05 12:40:09;;;;;;;1.50;1.50;;;;;;;;;;5020025;28;20186;-63
2022/03/05 12:42:40;;;;;;;1.20;1.20;;;;;;;;;;5018811;28;20177;-64
2022/03/05 12:45:07;;;;;;;2.08;1.98;;;;;;;;;;5021124;28;20330;-64
2022/03/05 12:47:34;;;;;;;1.60;1.60;;;;;;;;;;5017484;28;20183;-64
2022/03/05 12:50:19;;;;;;;1.10;1.10;;;;;;;;;;5017346;28;20184;-64
2022/03/05 12:53:17;;;;;;;1.80;1.80;;;;;;;;;;5024197;28;20191;-64
2022/03/05 12:55:55;;;;;;;0.88;0.88;;;;;;;;;;5001701;28;20758;-64
2022/03/05 12:58:22;;;;;;;1.05;1.05;;;;;;;;;;5023389;28;20717;-64
2022/03/05 13:00:54;;;;;;;1.05;1.05;;;;;;;;;;5025708;28;20216;-63
2022/03/05 13:03:20;;;;;;;3.00;3.00;;;;;;;;;;5023938;28;20182;-63
2022/03/05 13:05:53;;;;;;;1.65;1.65;;;;;;;;;;5019474;28;20220;-61
2022/03/05 13:08:20;;;;;;;1.20;1.20;;;;;;;;;;5027749;28;20686;-63
2022/03/05 13:10:47;;;;;;;1.38;1.38;;;;;;;;;;5020370;28;20204;-63
2022/03/05 13:13:13;;;;;;;1.17;1.17;;;;;;;;;;5027755;28;20226;-63
2022/03/05 13:15:40;;;;;;;0.90;0.90;;;;;;;;;;5029468;28;20746;-63
2022/03/05 13:18:06;;;;;;;1.40;1.40;;;;;;;;;;5025757;28;20184;-63
2022/03/05 13:20:33;;;;;;;1.15;1.15;;;;;;;;;;5017887;28;20201;-64
2022/03/05 13:22:59;;;;;;;1.30;1.30;;;;;;;;;;5021090;28;20176;-64
2022/03/05 13:25:27;;;;;;;0.90;0.90;;;;;;;;;;5021363;28;20217;-64
2022/03/05 13:27:53;;;;;;;1.63;1.63;;;;;;;;;;5022751;28;20252;-64
2022/03/05 13:30:21;;;;;;;1.73;1.73;;;;;;;;;;5021998;28;20188;-64
2022/03/05 13:32:48;;;;;;;1.35;1.35;;;;;;;;;;5029773;28;20919;-64
2022/03/05 13:35:15;;;;;;;0.90;0.90;;;;;;;;;;5024953;28;20268;-61
2022/03/05 13:37:41;;;;;;;0.90;0.90;;;;;;;;;;5012057;28;20192;-63
2022/03/05 13:40:08;;;;;;;0.80;0.80;;;;;;;;;;5022495;28;20208;-63
2022/03/05 13:42:35;;;;;;;0.68;0.68;;;;;;;;;;5027784;28;20188;-63
2022/03/05 13:45:03;;;;;;;3.05;2.85;;;;;;;;;;5023245;28;20213;-63
2022/03/05 13:47:29;;;;;;;4.15;3.95;;;;;;;;;;5020355;28;20197;-63
2022/03/05 13:50:03;;;;;;;2.65;2.55;;;;;;;;;;5015519;28;20201;-63
2022/03/05 13:52:31;;;;;;;2.00;2.00;;;;;;;;;;5016998;28;20655;-63
2022/03/05 13:55:06;;;;;;;1.65;1.65;;;;;;;;;;5026862;28;20181;-63
2022/03/05 13:57:33;;;;;;;1.98;1.98;;;;;;;;;;5020941;28;20188;-62
2022/03/05 14:00:07;;;;;;;1.23;1.23;;;;;;;;;;5021147;28;20185;-63
2022/03/05 14:02:33;;;;;;;1.40;1.40;;;;;;;;;;5002698;28;20652;-63
2022/03/05 14:05:00;;;;;;;2.42;2.33;;;;;;;;;;5017259;28;20221;-63
2022/03/05 14:07:26;;;;;;;0.63;0.63;;;;;;;;;;5017836;28;20173;-63
2022/03/05 14:09:52;;;;;;;0.98;0.98;;;;;;;;;;5016746;28;20635;-63
2022/03/05 14:12:19;;;;;;;2.70;2.60;;;;;;;;;;5019238;28;20273;-63
2022/03/05 14:14:45;;;;;;;1.40;1.40;;;;;;;;;;5022452;28;20435;-63
2022/03/05 14:17:23;;;;;;;2.33;2.23;;;;;;;;;;5029838;28;20212;-63
2022/03/05 14:19:49;;;;;;;1.05;1.05;;;;;;;;;;5019324;28;20510;-63
2022/03/05 14:22:20;;;;;;;0.70;0.70;;;;;;;;;;5023280;28;20177;-63
2022/03/05 14:24:46;;;;;;;0.90;0.90;;;;;;;;;;5019149;28;20470;-63
2022/03/05 14:27:15;;;;;;;0.40;0.40;;;;;;;;;;5031706;28;20205;-63
2022/03/05 14:29:42;;;;;;;0.60;0.60;;;;;;;;;;5023262;28;20507;-63
2022/03/05 14:32:08;;;;;;;1.08;1.08;;;;;;;;;;5026167;28;20185;-63
2022/03/05 14:34:34;;;;;;;0.55;0.55;;;;;;;;;;5029713;28;20258;-63
2022/03/05 14:37:00;;;;;;;0.85;0.85;;;;;;;;;;5027811;28;20209;-63
2022/03/05 14:39:27;;;;;;;0.70;0.70;;;;;;;;;;5028661;28;20181;-63
2022/03/05 14:41:53;;;;;;;0.75;0.75;;;;;;;;;;5030589;28;20189;-63
2022/03/05 14:44:19;;;;;;;0.63;0.63;;;;;;;;;;5025016;28;20204;-63